createdAt,value
2018-12-11T00:00:23.666Z,84.44
2018-12-11T00:01:23.634Z,84.44
2018-12-11T00:02:23.620Z,84.44
2018-12-11T00:03:23.614Z,84.23
2018-12-11T00:04:23.602Z,84.34
2018-12-11T00:05:23.590Z,84.44
2018-12-11T00:06:23.586Z,84.65
2018-12-11T00:07:23.563Z,84.44
2018-12-11T00:08:23.569Z,84.34
2018-12-11T00:09:23.548Z,84.55
2018-12-11T00:10:23.537Z,84.86
2018-12-11T00:11:23.519Z,84.34
2018-12-11T00:12:23.556Z,84.34
2018-12-11T00:13:23.505Z,84.44
2018-12-11T00:14:23.495Z,84.34
2018-12-11T00:15:23.482Z,84.23
2018-12-11T00:16:23.472Z,84.34
2018-12-11T00:17:23.461Z,84.13
2018-12-11T00:18:23.458Z,84.03
2018-12-11T00:19:23.441Z,84.34
2018-12-11T00:20:23.432Z,84.34
2018-12-11T00:21:23.419Z,84.13
2018-12-11T00:22:23.407Z,84.44
2018-12-11T00:23:23.413Z,84.13
2018-12-11T00:24:23.386Z,84.23
2018-12-11T00:25:23.385Z,83.93
2018-12-11T00:26:23.357Z,84.23
2018-12-11T00:27:23.349Z,84.13
2018-12-11T00:28:23.382Z,84.03
2018-12-11T00:29:23.333Z,84.23
2018-12-11T00:30:23.315Z,83.72
2018-12-11T00:31:23.307Z,84.13
2018-12-11T00:32:23.293Z,83.72
2018-12-11T00:33:23.287Z,83.93
2018-12-11T00:34:23.287Z,83.93
2018-12-11T00:35:23.266Z,84.34
2018-12-11T00:36:23.254Z,83.93
2018-12-11T00:37:23.242Z,84.44
2018-12-11T00:38:23.230Z,84.23
2018-12-11T00:39:23.234Z,84.86
2018-12-11T00:40:23.209Z,83.06
2018-12-11T00:41:23.237Z,83.00
2018-12-11T00:42:23.186Z,83.31
2018-12-11T00:43:23.175Z,83.72
2018-12-11T00:44:23.167Z,83.72
2018-12-11T00:45:23.162Z,83.93
2018-12-11T00:46:23.141Z,83.93
2018-12-11T00:47:23.147Z,84.13
2018-12-11T00:48:23.125Z,84.23
2018-12-11T00:49:23.111Z,84.13
2018-12-11T00:50:23.105Z,83.83
2018-12-11T00:51:23.087Z,84.13
2018-12-11T00:52:23.088Z,84.03
2018-12-11T00:53:23.070Z,84.34
2018-12-11T00:54:23.060Z,84.34
2018-12-11T00:55:23.044Z,84.44
2018-12-11T00:56:23.039Z,84.34
2018-12-11T00:57:23.077Z,84.34
2018-12-11T00:58:23.016Z,84.44
2018-12-11T00:59:23.001Z,84.23
2018-12-11T01:00:22.991Z,84.23
2018-12-11T01:01:22.977Z,84.23
2018-12-11T01:02:22.974Z,84.55
2018-12-11T01:03:22.971Z,84.55
2018-12-11T01:04:22.945Z,84.75
2018-12-11T01:05:22.939Z,84.96
2018-12-11T01:06:22.925Z,84.55
2018-12-11T01:07:22.929Z,84.86
2018-12-11T01:08:22.902Z,84.55
2018-12-11T01:09:22.898Z,84.90
2018-12-11T01:10:22.880Z,84.75
2018-12-11T01:11:22.869Z,84.75
2018-12-11T01:12:22.878Z,84.75
2018-12-11T01:13:22.849Z,84.86
2018-12-11T01:14:22.843Z,84.44
2018-12-11T01:15:22.840Z,84.34
2018-12-11T01:16:22.815Z,84.55
2018-12-11T01:17:22.847Z,84.44
2018-12-11T01:18:22.804Z,85.38
2018-12-11T01:19:22.788Z,84.96
2018-12-11T01:20:22.811Z,85.27
2018-12-11T01:21:22.767Z,85.27
2018-12-11T01:22:22.752Z,85.48
2018-12-11T01:23:22.750Z,85.31
2018-12-11T01:24:22.729Z,85.27
2018-12-11T01:25:22.724Z,85.48
2018-12-11T01:26:22.710Z,85.38
2018-12-11T01:27:22.702Z,85.27
2018-12-11T01:28:22.734Z,85.17
2018-12-11T01:29:22.690Z,84.44
2018-12-11T01:30:22.667Z,84.75
2018-12-11T01:31:22.655Z,85.48
2018-12-11T01:32:22.645Z,85.38
2018-12-11T01:33:22.632Z,85.38
2018-12-11T01:34:22.744Z,86.00
2018-12-11T01:35:22.614Z,85.38
2018-12-11T01:36:22.604Z,84.44
2018-12-11T01:37:22.591Z,84.86
2018-12-11T01:38:22.594Z,84.65
2018-12-11T01:39:22.571Z,84.44
2018-12-11T01:40:22.558Z,84.90
2018-12-11T01:41:22.545Z,84.44
2018-12-11T01:42:22.539Z,84.34
2018-12-11T01:43:22.531Z,85.38
2018-12-11T01:44:22.537Z,85.38
2018-12-11T01:45:22.518Z,85.38
2018-12-11T01:46:22.493Z,85.48
2018-12-11T01:47:22.487Z,85.89
2018-12-11T01:48:22.472Z,85.69
2018-12-11T01:49:22.474Z,85.38
2018-12-11T01:50:22.448Z,85.69
2018-12-11T01:51:22.441Z,85.38
2018-12-11T01:52:22.431Z,85.58
2018-12-11T01:53:22.417Z,85.38
2018-12-11T01:54:22.435Z,84.96
2018-12-11T01:55:22.397Z,84.65
2018-12-11T01:56:22.388Z,85.06
2018-12-11T01:57:22.373Z,85.48
2018-12-11T01:58:22.363Z,85.17
2018-12-11T01:59:22.465Z,85.27
2018-12-11T02:00:22.378Z,84.75
2018-12-11T02:01:22.335Z,84.75
2018-12-11T02:02:22.320Z,84.44
2018-12-11T02:03:22.307Z,85.38
2018-12-11T02:04:22.298Z,84.44
2018-12-11T02:05:22.290Z,85.38
2018-12-11T02:06:22.293Z,84.75
2018-12-11T02:07:22.264Z,84.86
2018-12-11T02:08:22.266Z,85.58
2018-12-11T02:09:22.242Z,84.96
2018-12-11T02:10:22.275Z,85.27
2018-12-11T02:11:22.241Z,84.75
2018-12-11T02:12:22.215Z,84.44
2018-12-11T02:13:22.202Z,84.75
2018-12-11T02:14:22.190Z,84.23
2018-12-11T02:15:22.178Z,84.44
2018-12-11T02:16:22.182Z,84.86
2018-12-11T02:17:22.158Z,84.65
2018-12-11T02:18:22.145Z,84.55
2018-12-11T02:19:22.139Z,84.44
2018-12-11T02:20:22.126Z,84.44
2018-12-11T02:21:22.165Z,84.34
2018-12-11T02:22:22.103Z,84.23
2018-12-11T02:23:22.098Z,84.55
2018-12-11T02:24:22.095Z,84.44
2018-12-11T02:25:22.071Z,84.75
2018-12-11T02:26:22.071Z,84.44
2018-12-11T02:27:22.051Z,84.55
2018-12-11T02:28:22.038Z,84.75
2018-12-11T02:29:22.034Z,84.75
2018-12-11T02:30:22.020Z,84.75
2018-12-11T02:31:22.008Z,84.34
2018-12-11T02:32:22.012Z,84.75
2018-12-11T02:33:21.992Z,84.75
2018-12-11T02:34:21.979Z,84.86
2018-12-11T02:35:21.962Z,84.65
2018-12-11T02:36:21.963Z,84.65
2018-12-11T02:37:21.956Z,84.86
2018-12-11T02:38:21.948Z,84.75
2018-12-11T02:39:21.920Z,84.75
2018-12-11T02:40:21.927Z,84.75
2018-12-11T02:41:21.897Z,84.34
2018-12-11T02:42:21.888Z,84.44
2018-12-11T02:43:21.892Z,84.23
2018-12-11T02:44:21.886Z,84.44
2018-12-11T02:45:21.855Z,84.13
2018-12-11T02:46:21.845Z,84.23
2018-12-11T02:47:21.834Z,84.55
2018-12-11T02:48:21.839Z,84.20
2018-12-11T02:49:21.813Z,84.23
2018-12-11T02:50:21.809Z,84.44
2018-12-11T02:51:21.802Z,84.23
2018-12-11T02:52:21.778Z,84.44
2018-12-11T02:53:21.790Z,84.03
2018-12-11T02:54:21.766Z,84.03
2018-12-11T02:55:21.759Z,84.03
2018-12-11T02:56:21.736Z,84.23
2018-12-11T02:57:21.732Z,83.93
2018-12-11T02:58:21.729Z,84.09
2018-12-11T02:59:21.707Z,83.93
2018-12-11T03:00:21.695Z,83.68
2018-12-11T03:01:21.688Z,84.03
2018-12-11T03:02:21.672Z,83.72
2018-12-11T03:03:21.674Z,83.89
2018-12-11T03:04:21.676Z,84.13
2018-12-11T03:05:21.643Z,84.13
2018-12-11T03:06:21.639Z,83.89
2018-12-11T03:07:21.618Z,83.93
2018-12-11T03:08:21.607Z,84.09
2018-12-11T03:09:21.603Z,83.99
2018-12-11T03:10:21.604Z,83.93
2018-12-11T03:11:21.581Z,83.83
2018-12-11T03:12:21.568Z,84.03
2018-12-11T03:13:21.566Z,83.83
2018-12-11T03:14:21.550Z,83.68
2018-12-11T03:15:21.529Z,83.89
2018-12-11T03:16:21.526Z,83.78
2018-12-11T03:17:21.511Z,83.78
2018-12-11T03:18:21.514Z,83.58
2018-12-11T03:19:21.496Z,83.58
2018-12-11T03:20:21.494Z,83.58
2018-12-11T03:21:21.482Z,83.41
2018-12-11T03:22:21.459Z,83.41
2018-12-11T03:23:21.484Z,83.16
2018-12-11T03:24:21.442Z,83.47
2018-12-11T03:25:21.437Z,83.26
2018-12-11T03:26:21.429Z,83.16
2018-12-11T03:27:21.410Z,83.06
2018-12-11T03:28:21.398Z,82.13
2018-12-11T03:29:21.395Z,82.75
2018-12-11T03:30:21.368Z,83.16
2018-12-11T03:31:21.360Z,83.16
2018-12-11T03:32:21.352Z,83.06
2018-12-11T03:33:21.345Z,83.06
2018-12-11T03:34:21.338Z,83.16
2018-12-11T03:35:21.311Z,83.16
2018-12-11T03:36:21.302Z,82.13
2018-12-11T03:37:21.290Z,82.34
2018-12-11T03:38:21.325Z,82.23
2018-12-11T03:39:21.296Z,82.03
2018-12-11T03:40:21.298Z,82.65
2018-12-11T03:41:21.254Z,82.34
2018-12-11T03:42:21.241Z,82.65
2018-12-11T03:43:21.224Z,83.16
2018-12-11T03:44:21.219Z,83.37
2018-12-11T03:45:21.213Z,83.16
2018-12-11T03:46:21.194Z,82.86
2018-12-11T03:47:21.179Z,82.23
2018-12-11T03:48:21.174Z,82.23
2018-12-11T03:49:21.164Z,83.16
2018-12-11T03:50:21.158Z,82.86
2018-12-11T03:51:21.142Z,83.06
2018-12-11T03:52:21.893Z,83.16
2018-12-11T03:53:21.122Z,83.33
2018-12-11T03:54:21.106Z,83.26
2018-12-11T03:55:21.111Z,83.37
2018-12-11T03:56:21.098Z,83.89
2018-12-11T03:57:21.069Z,83.89
2018-12-11T03:58:21.061Z,83.37
2018-12-11T03:59:21.053Z,82.34
2018-12-11T04:00:21.048Z,83.26
2018-12-11T04:01:21.032Z,82.86
2018-12-11T04:02:21.034Z,82.86
2018-12-11T04:03:21.019Z,83.58
2018-12-11T04:04:21.001Z,83.78
2018-12-11T04:05:20.989Z,83.89
2018-12-11T04:06:21.015Z,83.89
2018-12-11T04:07:20.968Z,83.37
2018-12-11T04:08:20.955Z,84.20
2018-12-11T04:09:20.947Z,83.99
2018-12-11T04:10:20.937Z,84.30
2018-12-11T04:11:20.924Z,84.30
2018-12-11T04:12:20.937Z,84.61
2018-12-11T04:13:20.924Z,84.44
2018-12-11T04:14:20.897Z,84.72
2018-12-11T04:15:20.882Z,86.07
2018-12-11T04:16:20.864Z,85.75
2018-12-11T04:17:20.860Z,86.00
2018-12-11T04:18:20.870Z,84.96
2018-12-11T04:19:20.833Z,85.55
2018-12-11T04:20:20.828Z,85.44
2018-12-11T04:21:20.812Z,85.69
2018-12-11T04:22:20.800Z,85.79
2018-12-11T04:23:20.790Z,86.10
2018-12-11T04:24:20.800Z,85.79
2018-12-11T04:25:20.768Z,85.27
2018-12-11T04:26:20.754Z,85.27
2018-12-11T04:27:20.745Z,84.44
2018-12-11T04:28:20.733Z,86.41
2018-12-11T04:29:20.729Z,85.58
2018-12-11T04:30:20.754Z,85.65
2018-12-11T04:31:20.703Z,86.52
2018-12-11T04:32:20.695Z,85.58
2018-12-11T04:33:20.681Z,86.31
2018-12-11T04:34:20.714Z,86.21
2018-12-11T04:35:20.658Z,86.41
2018-12-11T04:36:20.679Z,86.41
2018-12-11T04:37:20.635Z,86.00
2018-12-11T04:38:20.633Z,86.00
2018-12-11T04:39:20.618Z,86.31
2018-12-11T04:40:20.608Z,86.21
2018-12-11T04:41:20.608Z,85.79
2018-12-11T04:42:20.587Z,84.75
2018-12-11T04:43:20.573Z,84.44
2018-12-11T04:44:20.568Z,84.65
2018-12-11T04:45:20.557Z,85.79
2018-12-11T04:46:20.576Z,85.69
2018-12-11T04:47:20.587Z,85.69
2018-12-11T04:48:20.540Z,85.86
2018-12-11T04:49:20.512Z,85.27
2018-12-11T04:50:20.494Z,84.96
2018-12-11T04:51:20.490Z,84.44
2018-12-11T04:52:20.496Z,84.65
2018-12-11T04:53:20.462Z,85.38
2018-12-11T04:54:20.457Z,85.48
2018-12-11T04:55:20.446Z,84.34
2018-12-11T04:56:20.428Z,84.75
2018-12-11T04:57:20.424Z,84.34
2018-12-11T04:58:20.418Z,84.65
2018-12-11T04:59:20.398Z,84.44
2018-12-11T05:00:20.386Z,84.30
2018-12-11T05:01:20.380Z,84.86
2018-12-11T05:02:20.368Z,84.86
2018-12-11T05:03:20.370Z,84.13
2018-12-11T05:04:20.351Z,85.27
2018-12-11T05:05:20.337Z,86.41
2018-12-11T05:06:20.325Z,85.38
2018-12-11T05:07:20.334Z,84.65
2018-12-11T05:08:20.357Z,84.55
2018-12-11T05:09:20.293Z,85.58
2018-12-11T05:10:20.285Z,84.65
2018-12-11T05:11:20.269Z,85.69
2018-12-11T05:12:20.262Z,86.21
2018-12-11T05:13:20.255Z,84.75
2018-12-11T05:14:20.250Z,85.79
2018-12-11T05:15:20.228Z,86.52
2018-12-11T05:16:20.219Z,86.31
2018-12-11T05:17:20.207Z,86.21
2018-12-11T05:18:21.279Z,86.83
2018-12-11T05:19:20.200Z,86.72
2018-12-11T05:20:20.170Z,85.48
2018-12-11T05:21:20.165Z,86.52
2018-12-11T05:22:20.160Z,86.00
2018-12-11T05:23:20.142Z,85.89
2018-12-11T05:24:20.166Z,85.69
2018-12-11T05:25:20.115Z,85.79
2018-12-11T05:26:20.304Z,86.31
2018-12-11T05:27:20.099Z,86.52
2018-12-11T05:28:20.089Z,86.10
2018-12-11T05:29:20.075Z,85.69
2018-12-11T05:30:20.079Z,85.94
2018-12-11T05:31:20.056Z,86.21
2018-12-11T05:32:20.044Z,86.10
2018-12-11T05:33:20.052Z,85.52
2018-12-11T05:34:20.027Z,85.48
2018-12-11T05:35:20.012Z,86.62
2018-12-11T05:36:20.005Z,86.41
2018-12-11T05:37:19.988Z,86.62
2018-12-11T05:38:19.980Z,85.42
2018-12-11T05:39:19.968Z,86.10
2018-12-11T05:40:19.969Z,86.31
2018-12-11T05:41:19.943Z,85.58
2018-12-11T05:42:19.937Z,85.79
2018-12-11T05:43:19.922Z,86.00
2018-12-11T05:44:19.916Z,85.73
2018-12-11T05:45:19.903Z,85.31
2018-12-11T05:46:19.905Z,84.86
2018-12-11T05:47:19.884Z,84.65
2018-12-11T05:48:19.876Z,85.52
2018-12-11T05:49:19.862Z,86.52
2018-12-11T05:50:19.888Z,86.31
2018-12-11T05:51:19.841Z,85.69
2018-12-11T05:52:19.857Z,86.10
2018-12-11T05:53:19.815Z,86.10
2018-12-11T05:54:19.808Z,85.31
2018-12-11T05:55:19.796Z,85.73
2018-12-11T05:56:19.793Z,85.73
2018-12-11T05:57:19.794Z,85.79
2018-12-11T05:58:19.760Z,86.62
2018-12-11T05:59:19.754Z,86.62
2018-12-11T06:00:19.739Z,86.66
2018-12-11T06:01:19.738Z,86.66
2018-12-11T06:02:19.722Z,86.45
2018-12-11T06:03:19.719Z,86.87
2018-12-11T06:04:19.699Z,86.45
2018-12-11T06:05:19.683Z,86.04
2018-12-11T06:06:19.671Z,86.76
2018-12-11T06:07:19.665Z,87.49
2018-12-11T06:08:19.661Z,87.18
2018-12-11T06:09:19.639Z,87.49
2018-12-11T06:10:19.635Z,87.38
2018-12-11T06:11:19.619Z,86.87
2018-12-11T06:12:19.639Z,86.87
2018-12-11T06:13:19.607Z,86.66
2018-12-11T06:14:19.715Z,87.07
2018-12-11T06:15:19.578Z,87.18
2018-12-11T06:16:19.570Z,88.32
2018-12-11T06:17:19.559Z,88.53
2018-12-11T06:18:19.547Z,88.84
2018-12-11T06:19:19.537Z,89.15
2018-12-11T06:20:19.530Z,89.15
2018-12-11T06:21:19.514Z,88.42
2018-12-11T06:22:19.506Z,88.63
2018-12-11T06:23:19.490Z,89.04
2018-12-11T06:24:19.483Z,90.29
2018-12-11T06:25:19.486Z,90.39
2018-12-11T06:26:19.458Z,89.77
2018-12-11T06:27:19.447Z,90.85
2018-12-11T06:28:19.433Z,90.54
2018-12-11T06:29:19.433Z,91.68
2018-12-11T06:30:19.452Z,91.47
2018-12-11T06:31:19.422Z,91.58
2018-12-11T06:32:19.396Z,91.78
2018-12-11T06:33:19.386Z,91.89
2018-12-11T06:34:19.375Z,92.45
2018-12-11T06:35:19.359Z,92.61
2018-12-11T06:36:19.375Z,92.76
2018-12-11T06:37:19.341Z,93.18
2018-12-11T06:38:19.326Z,93.18
2018-12-11T06:39:19.318Z,93.18
2018-12-11T06:40:19.310Z,92.76
2018-12-11T06:41:19.305Z,92.86
2018-12-11T06:42:19.286Z,93.18
2018-12-11T06:43:19.275Z,92.76
2018-12-11T06:44:19.261Z,93.28
2018-12-11T06:45:19.251Z,93.49
2018-12-11T06:46:19.276Z,93.59
2018-12-11T06:47:19.234Z,93.23
2018-12-11T06:48:19.227Z,93.59
2018-12-11T06:49:19.211Z,93.75
2018-12-11T06:50:19.199Z,93.80
2018-12-11T06:51:19.190Z,93.18
2018-12-11T06:52:19.216Z,93.59
2018-12-11T06:53:19.162Z,92.51
2018-12-11T06:54:19.157Z,92.82
2018-12-11T06:55:19.154Z,92.30
2018-12-11T06:56:19.129Z,92.30
2018-12-11T06:57:19.135Z,92.41
2018-12-11T06:58:19.108Z,92.72
2018-12-11T06:59:19.103Z,92.93
2018-12-11T07:00:19.090Z,91.99
2018-12-11T07:01:19.075Z,92.61
2018-12-11T07:02:19.107Z,92.10
2018-12-11T07:03:19.059Z,92.41
2018-12-11T07:04:19.046Z,92.30
2018-12-11T07:05:19.189Z,92.10
2018-12-11T07:06:19.019Z,91.78
2018-12-11T07:07:19.084Z,90.64
2018-12-11T07:08:19.014Z,90.64
2018-12-11T07:09:19.024Z,90.64
2018-12-11T07:10:18.986Z,90.44
2018-12-11T07:11:18.970Z,90.12
2018-12-11T07:12:19.899Z,90.12
2018-12-11T07:13:18.950Z,90.08
2018-12-11T07:14:18.937Z,90.19
2018-12-11T07:15:18.938Z,90.02
2018-12-11T07:16:18.913Z,89.87
2018-12-11T07:17:18.908Z,89.81
2018-12-11T07:18:25.751Z,89.77
2018-12-11T07:19:19.914Z,90.19
2018-12-11T07:20:18.874Z,90.60
2018-12-11T07:21:18.862Z,89.87
2018-12-11T07:22:18.853Z,90.23
2018-12-11T07:23:18.862Z,89.36
2018-12-11T07:24:18.831Z,88.84
2018-12-11T07:25:18.830Z,89.15
2018-12-11T07:26:18.806Z,88.94
2018-12-11T07:27:18.808Z,88.42
2018-12-11T07:28:18.781Z,87.90
2018-12-11T07:29:18.772Z,88.42
2018-12-11T07:30:18.776Z,88.42
2018-12-11T07:31:18.764Z,88.11
2018-12-11T07:32:18.746Z,88.32
2018-12-11T07:33:19.454Z,87.70
2018-12-11T07:34:18.722Z,86.55
2018-12-11T07:35:18.710Z,86.76
2018-12-11T07:36:18.733Z,87.59
2018-12-11T07:37:18.688Z,87.59
2018-12-11T07:38:18.678Z,86.76
2018-12-11T07:39:18.669Z,87.18
2018-12-11T07:40:18.651Z,86.55
2018-12-11T07:41:18.642Z,86.55
2018-12-11T07:42:18.657Z,87.80
2018-12-11T07:43:18.622Z,87.49
2018-12-11T07:44:18.613Z,86.97
2018-12-11T07:45:18.630Z,87.49
2018-12-11T07:46:18.595Z,87.18
2018-12-11T07:47:18.581Z,87.59
2018-12-11T07:48:18.596Z,87.70
2018-12-11T07:49:18.668Z,87.90
2018-12-11T07:50:18.552Z,88.21
2018-12-11T07:51:18.531Z,88.32
2018-12-11T07:52:18.541Z,86.15
2018-12-11T07:53:18.519Z,86.66
2018-12-11T07:54:18.512Z,86.45
2018-12-11T07:55:18.497Z,86.55
2018-12-11T07:56:18.481Z,87.38
2018-12-11T07:57:18.532Z,87.80
2018-12-11T07:58:18.470Z,87.38
2018-12-11T07:59:18.448Z,86.76
2018-12-11T08:00:18.442Z,87.80
2018-12-11T08:01:18.439Z,87.55
2018-12-11T08:02:18.442Z,87.49
2018-12-11T08:03:18.401Z,87.70
2018-12-11T08:04:18.405Z,88.01
2018-12-11T08:05:18.379Z,88.01
2018-12-11T08:06:18.394Z,88.01
2018-12-11T08:07:18.365Z,88.01
2018-12-11T08:08:18.352Z,88.59
2018-12-11T08:09:18.356Z,87.04
2018-12-11T08:10:18.328Z,87.04
2018-12-11T08:11:18.318Z,87.04
2018-12-11T08:12:18.310Z,87.55
2018-12-11T08:13:18.299Z,87.04
2018-12-11T08:14:18.283Z,88.18
2018-12-11T08:15:18.285Z,87.14
2018-12-11T08:16:18.269Z,87.24
2018-12-11T08:17:18.252Z,87.24
2018-12-11T08:18:18.247Z,87.04
2018-12-11T08:19:18.228Z,87.55
2018-12-11T08:20:18.226Z,87.66
2018-12-11T08:21:18.225Z,86.83
2018-12-11T08:22:18.195Z,87.04
2018-12-11T08:23:18.191Z,87.76
2018-12-11T08:24:18.181Z,87.35
2018-12-11T08:25:18.180Z,87.45
2018-12-11T08:26:18.162Z,87.55
2018-12-11T08:27:18.146Z,86.52
2018-12-11T08:28:18.141Z,86.00
2018-12-11T08:29:18.122Z,86.41
2018-12-11T08:30:18.176Z,86.52
2018-12-11T08:31:18.104Z,87.45
2018-12-11T08:32:18.092Z,87.76
2018-12-11T08:33:18.077Z,88.18
2018-12-11T08:34:18.939Z,88.28
2018-12-11T08:35:18.057Z,88.07
2018-12-11T08:36:18.066Z,88.59
2018-12-11T08:37:18.037Z,88.90
2018-12-11T08:38:18.030Z,89.83
2018-12-11T08:39:18.018Z,90.25
2018-12-11T08:40:18.014Z,88.79
2018-12-11T08:41:19.202Z,88.59
2018-12-11T08:42:17.986Z,88.32
2018-12-11T08:43:17.975Z,88.94
2018-12-11T08:44:17.962Z,89.31
2018-12-11T08:45:17.955Z,88.79
2018-12-11T08:46:17.947Z,87.90
2018-12-11T08:47:17.952Z,87.90
2018-12-11T08:48:17.924Z,87.80
2018-12-11T08:49:17.907Z,86.76
2018-12-11T08:50:17.904Z,87.80
2018-12-11T08:51:17.883Z,88.94
2018-12-11T08:52:17.885Z,89.25
2018-12-11T08:53:17.863Z,89.56
2018-12-11T08:54:17.859Z,89.77
2018-12-11T08:55:17.840Z,89.77
2018-12-11T08:56:17.833Z,89.52
2018-12-11T08:57:17.850Z,89.67
2018-12-11T08:58:17.828Z,89.83
2018-12-11T08:59:17.806Z,89.77
2018-12-11T09:00:17.794Z,89.42
2018-12-11T09:01:17.775Z,88.39
2018-12-11T09:02:17.830Z,88.79
2018-12-11T09:03:17.759Z,88.28
2018-12-11T09:04:17.752Z,88.79
2018-12-11T09:05:17.756Z,89.52
2018-12-11T09:06:17.721Z,89.31
2018-12-11T09:07:17.719Z,89.00
2018-12-11T09:08:17.726Z,88.69
2018-12-11T09:09:17.695Z,87.70
2018-12-11T09:10:17.685Z,87.76
2018-12-11T09:11:17.669Z,88.59
2018-12-11T09:12:17.656Z,88.90
2018-12-11T09:13:17.655Z,88.69
2018-12-11T09:14:17.673Z,88.07
2018-12-11T09:15:17.624Z,88.28
2018-12-11T09:16:17.615Z,88.69
2018-12-11T09:17:17.613Z,87.87
2018-12-11T09:18:17.630Z,88.28
2018-12-11T09:19:17.596Z,88.90
2018-12-11T09:20:17.573Z,89.52
2018-12-11T09:21:17.566Z,89.52
2018-12-11T09:22:17.554Z,90.87
2018-12-11T09:23:17.547Z,91.08
2018-12-11T09:24:17.545Z,91.39
2018-12-11T09:25:17.521Z,90.04
2018-12-11T09:26:17.507Z,89.15
2018-12-11T09:27:17.493Z,90.45
2018-12-11T09:28:17.487Z,92.01
2018-12-11T09:29:17.513Z,92.53
2018-12-11T09:30:17.466Z,92.32
2018-12-11T09:31:17.457Z,92.94
2018-12-11T09:32:17.441Z,93.04
2018-12-11T09:33:17.436Z,93.25
2018-12-11T09:34:18.235Z,93.04
2018-12-11T09:35:17.425Z,91.95
2018-12-11T09:36:17.405Z,91.53
2018-12-11T09:37:17.393Z,91.33
2018-12-11T09:38:17.382Z,91.53
2018-12-11T09:39:18.975Z,91.12
2018-12-11T09:40:17.366Z,91.47
2018-12-11T09:41:17.350Z,90.39
2018-12-11T09:42:17.338Z,91.37
2018-12-11T09:43:17.346Z,90.95
2018-12-11T09:44:17.318Z,90.64
2018-12-11T09:45:17.301Z,91.16
2018-12-11T09:46:17.294Z,91.78
2018-12-11T09:47:17.321Z,92.82
2018-12-11T09:48:17.273Z,92.41
2018-12-11T09:49:17.262Z,92.61
2018-12-11T09:50:17.252Z,92.72
2018-12-11T09:51:17.904Z,92.93
2018-12-11T09:52:17.227Z,92.35
2018-12-11T09:53:17.229Z,92.86
2018-12-11T09:54:17.208Z,93.75
2018-12-11T09:55:17.192Z,94.21
2018-12-11T09:56:17.221Z,93.80
2018-12-11T09:57:17.188Z,93.80
2018-12-11T09:58:17.176Z,93.38
2018-12-11T09:59:23.273Z,93.38
2018-12-11T10:00:19.228Z,93.70
2018-12-11T10:01:17.133Z,94.01
2018-12-11T10:02:17.116Z,93.59
2018-12-11T10:03:17.121Z,94.42
2018-12-11T10:04:17.104Z,93.38
2018-12-11T10:05:17.093Z,93.18
2018-12-11T10:06:17.076Z,92.97
2018-12-11T10:07:17.066Z,92.66
2018-12-11T10:08:17.053Z,93.38
2018-12-11T10:09:17.091Z,92.90
2018-12-11T10:10:17.032Z,93.22
2018-12-11T10:11:17.028Z,93.63
2018-12-11T10:12:17.016Z,94.42
2018-12-11T10:13:17.000Z,93.80
2018-12-11T10:14:16.987Z,93.32
2018-12-11T10:15:16.995Z,93.49
2018-12-11T10:16:16.973Z,94.32
2018-12-11T10:17:16.954Z,94.84
2018-12-11T10:18:16.951Z,94.73
2018-12-11T10:19:17.001Z,94.42
2018-12-11T10:20:16.924Z,93.59
2018-12-11T10:21:16.920Z,93.80
2018-12-11T10:22:16.900Z,93.49
2018-12-11T10:23:16.893Z,93.59
2018-12-11T10:24:16.886Z,94.11
2018-12-11T10:25:16.893Z,93.49
2018-12-11T10:26:16.855Z,93.80
2018-12-11T10:27:16.845Z,94.01
2018-12-11T10:28:16.840Z,93.80
2018-12-11T10:29:16.833Z,93.63
2018-12-11T10:30:16.816Z,93.70
2018-12-11T10:31:16.822Z,94.36
2018-12-11T10:32:16.795Z,93.84
2018-12-11T10:33:16.785Z,93.63
2018-12-11T10:34:16.777Z,94.05
2018-12-11T10:35:16.797Z,94.46
2018-12-11T10:36:16.755Z,94.78
2018-12-11T10:37:16.737Z,95.25
2018-12-11T10:38:16.729Z,95.29
2018-12-11T10:39:16.716Z,95.09
2018-12-11T10:40:16.713Z,94.67
2018-12-11T10:41:16.791Z,94.67
2018-12-11T10:42:16.690Z,93.74
2018-12-11T10:43:16.672Z,94.67
2018-12-11T10:44:16.664Z,95.81
2018-12-11T10:45:16.658Z,95.61
2018-12-11T10:46:16.637Z,95.81
2018-12-11T10:47:16.647Z,96.02
2018-12-11T10:48:16.614Z,95.92
2018-12-11T10:49:16.604Z,96.39
2018-12-11T10:50:16.599Z,94.63
2018-12-11T10:51:16.589Z,94.98
2018-12-11T10:52:16.621Z,95.56
2018-12-11T10:53:16.566Z,95.77
2018-12-11T10:54:16.558Z,95.87
2018-12-11T10:55:16.544Z,96.08
2018-12-11T10:56:16.530Z,96.08
2018-12-11T10:57:16.517Z,96.19
2018-12-11T10:58:16.522Z,96.60
2018-12-11T10:59:16.529Z,94.94
2018-12-11T11:00:16.485Z,95.67
2018-12-11T11:01:16.481Z,95.56
2018-12-11T11:02:16.467Z,95.87
2018-12-11T11:03:16.468Z,93.80
2018-12-11T11:04:16.449Z,93.84
2018-12-11T11:05:16.437Z,94.57
2018-12-11T11:06:16.927Z,95.04
2018-12-11T11:07:16.408Z,95.71
2018-12-11T11:08:16.415Z,96.19
2018-12-11T11:09:16.386Z,94.78
2018-12-11T11:10:16.398Z,94.98
2018-12-11T11:11:16.370Z,94.67
2018-12-11T11:12:16.355Z,95.98
2018-12-11T11:13:16.350Z,96.19
2018-12-11T11:14:16.353Z,94.53
2018-12-11T11:15:16.410Z,94.94
2018-12-11T11:16:16.315Z,94.01
2018-12-11T11:17:16.299Z,94.73
2018-12-11T11:18:16.290Z,94.57
2018-12-11T11:19:16.283Z,94.67
2018-12-11T11:20:16.273Z,93.63
2018-12-11T11:21:16.269Z,94.05
2018-12-11T11:22:16.248Z,95.61
2018-12-11T11:23:16.241Z,95.40
2018-12-11T11:24:16.249Z,95.61
2018-12-11T11:25:16.232Z,95.92
2018-12-11T11:26:16.211Z,95.40
2018-12-11T11:27:16.195Z,95.40
2018-12-11T11:28:16.207Z,95.50
2018-12-11T11:29:16.210Z,95.40
2018-12-11T11:30:16.168Z,95.61
2018-12-11T11:31:16.169Z,95.19
2018-12-11T11:32:16.136Z,94.67
2018-12-11T11:33:16.149Z,94.78
2018-12-11T11:34:16.123Z,95.61
2018-12-11T11:35:16.105Z,95.50
2018-12-11T11:36:16.109Z,95.40
2018-12-11T11:37:16.091Z,95.86
2018-12-11T11:38:16.074Z,95.29
2018-12-11T11:39:16.060Z,96.02
2018-12-11T11:40:16.052Z,94.57
2018-12-11T11:41:16.067Z,95.54
2018-12-11T11:42:16.031Z,95.65
2018-12-11T11:43:16.022Z,94.67
2018-12-11T11:44:16.008Z,95.03
2018-12-11T11:45:16.007Z,95.61
2018-12-11T11:46:15.996Z,95.34
2018-12-11T11:47:15.983Z,95.44
2018-12-11T11:48:15.976Z,95.09
2018-12-11T11:49:15.958Z,95.81
2018-12-11T11:50:15.946Z,95.86
2018-12-11T11:51:15.929Z,95.65
2018-12-11T11:52:15.923Z,94.61
2018-12-11T11:53:15.921Z,94.05
2018-12-11T11:54:15.897Z,94.71
2018-12-11T11:55:15.889Z,95.81
2018-12-11T11:56:15.886Z,96.12
2018-12-11T11:57:15.863Z,96.06
2018-12-11T11:58:15.871Z,96.37
2018-12-11T11:59:15.851Z,95.96
2018-12-11T12:00:15.838Z,95.75
2018-12-11T12:01:15.822Z,95.54
2018-12-11T12:02:15.814Z,95.92
2018-12-11T12:03:16.029Z,95.81
2018-12-11T12:04:15.806Z,96.37
2018-12-11T12:05:15.778Z,96.64
2018-12-11T12:06:15.764Z,96.64
2018-12-11T12:07:15.760Z,96.02
2018-12-11T12:08:15.746Z,96.02
2018-12-11T12:09:15.753Z,95.40
2018-12-11T12:10:15.734Z,95.81
2018-12-11T12:11:15.717Z,95.71
2018-12-11T12:12:15.705Z,96.06
2018-12-11T12:13:15.693Z,95.71
2018-12-11T12:14:15.702Z,96.33
2018-12-11T12:15:15.673Z,96.85
2018-12-11T12:16:15.661Z,96.95
2018-12-11T12:17:15.650Z,96.64
2018-12-11T12:18:15.636Z,96.12
2018-12-11T12:19:15.680Z,96.54
2018-12-11T12:20:15.614Z,96.12
2018-12-11T12:21:15.602Z,96.50
2018-12-11T12:22:15.605Z,96.39
2018-12-11T12:23:15.587Z,96.54
2018-12-11T12:24:15.584Z,96.64
2018-12-11T12:25:15.597Z,96.64
2018-12-11T12:26:15.547Z,95.92
2018-12-11T12:27:15.541Z,95.71
2018-12-11T12:28:15.535Z,96.29
2018-12-11T12:29:15.517Z,96.33
2018-12-11T12:30:15.504Z,96.19
2018-12-11T12:31:15.558Z,96.64
2018-12-11T12:32:15.487Z,96.60
2018-12-11T12:33:15.493Z,96.44
2018-12-11T12:34:15.470Z,96.81
2018-12-11T12:35:15.455Z,97.02
2018-12-11T12:36:15.443Z,96.60
2018-12-11T12:37:15.461Z,96.02
2018-12-11T12:38:15.423Z,96.08
2018-12-11T12:39:15.409Z,96.33
2018-12-11T12:40:15.403Z,95.98
2018-12-11T12:41:15.387Z,96.39
2018-12-11T12:42:15.373Z,96.29
2018-12-11T12:43:15.382Z,96.64
2018-12-11T12:44:15.421Z,96.60
2018-12-11T12:45:15.941Z,96.60
2018-12-11T12:46:15.339Z,95.87
2018-12-11T12:47:15.325Z,96.08
2018-12-11T12:48:15.974Z,95.87
2018-12-11T12:49:15.303Z,96.29
2018-12-11T12:50:15.291Z,95.81
2018-12-11T12:51:15.287Z,95.98
2018-12-11T12:52:15.264Z,95.19